createdAt,value
2023-04-09T00:01:09.480Z,79.00
2023-04-09T00:03:39.456Z,79.03
2023-04-09T00:06:07.866Z,79.15
2023-04-09T00:08:36.228Z,79.40
2023-04-09T00:11:04.888Z,79.33
2023-04-09T00:13:39.032Z,79.38
2023-04-09T00:16:08.862Z,79.51
2023-04-09T00:18:37.352Z,79.66
2023-04-09T00:21:05.996Z,79.63
2023-04-09T00:23:34.893Z,79.73
2023-04-09T00:26:03.305Z,79.87
2023-04-09T00:28:31.580Z,79.98
2023-04-09T00:30:59.818Z,80.21
2023-04-09T00:33:28.136Z,80.16
2023-04-09T00:35:57.037Z,80.14
2023-04-09T00:38:25.170Z,80.14
2023-04-09T00:40:53.435Z,80.29
2023-04-09T00:43:21.852Z,80.28
2023-04-09T00:45:50.221Z,80.28
2023-04-09T00:48:18.573Z,80.28
2023-04-09T00:50:46.781Z,80.30
2023-04-09T00:53:16.254Z,80.61
2023-04-09T00:55:46.001Z,80.48
2023-04-09T00:58:14.949Z,80.55
2023-04-09T01:00:43.022Z,80.56
2023-04-09T01:03:11.435Z,80.36
2023-04-09T01:05:50.526Z,80.48
2023-04-09T01:08:47.188Z,80.74
2023-04-09T01:11:32.310Z,80.71
2023-04-09T01:14:19.769Z,80.78
2023-04-09T01:16:56.009Z,80.93
2023-04-09T01:19:44.682Z,80.99
2023-04-09T01:22:35.719Z,81.03
2023-04-09T01:25:15.895Z,81.27
2023-04-09T01:28:19.769Z,81.36
2023-04-09T01:30:51.228Z,81.19
2023-04-09T01:33:21.497Z,81.30
2023-04-09T01:35:51.135Z,81.36
2023-04-09T01:38:22.003Z,81.43
2023-04-09T01:40:51.102Z,81.50
2023-04-09T01:43:20.367Z,81.64
2023-04-09T01:45:48.999Z,81.50
2023-04-09T01:48:17.078Z,81.68
2023-04-09T01:50:45.809Z,81.63
2023-04-09T01:53:14.391Z,81.75
2023-04-09T01:55:42.380Z,81.64
2023-04-09T01:58:10.429Z,81.89
2023-04-09T02:00:43.820Z,81.89
2023-04-09T02:03:22.302Z,81.83
2023-04-09T02:05:57.724Z,81.92
2023-04-09T02:08:28.314Z,82.08
2023-04-09T02:10:59.250Z,81.96
2023-04-09T02:13:30.030Z,81.83
2023-04-09T02:16:00.310Z,82.04
2023-04-09T02:18:30.336Z,82.00
2023-04-09T02:20:59.587Z,82.07
2023-04-09T02:23:27.809Z,82.11
2023-04-09T02:25:56.691Z,82.21
2023-04-09T02:28:24.648Z,82.43
2023-04-09T02:30:52.939Z,82.45
2023-04-09T02:33:21.103Z,82.50
2023-04-09T02:35:49.131Z,82.56
2023-04-09T02:38:17.355Z,82.52
2023-04-09T02:40:45.851Z,82.72
2023-04-09T02:43:13.776Z,82.66
2023-04-09T02:45:41.975Z,82.75
2023-04-09T02:48:09.979Z,83.11
2023-04-09T02:50:37.936Z,83.12
2023-04-09T02:53:06.091Z,83.25
2023-04-09T02:55:34.072Z,83.28
2023-04-09T02:58:02.125Z,83.30
2023-04-09T03:00:30.135Z,83.19
2023-04-09T03:02:58.487Z,83.31
2023-04-09T03:05:26.959Z,83.07
2023-04-09T03:07:55.133Z,83.04
2023-04-09T03:10:23.203Z,82.86
2023-04-09T03:12:51.483Z,83.00
2023-04-09T03:15:19.556Z,82.99
2023-04-09T03:17:47.455Z,82.94
2023-04-09T03:20:15.619Z,83.01
2023-04-09T03:22:43.761Z,82.86
2023-04-09T03:25:21.357Z,83.01
2023-04-09T03:27:50.185Z,82.99
2023-04-09T03:30:23.845Z,82.87
2023-04-09T03:32:51.883Z,83.03
2023-04-09T03:35:21.837Z,82.85
2023-04-09T03:37:50.925Z,82.96
2023-04-09T03:40:19.007Z,83.24
2023-04-09T03:42:47.210Z,83.36
2023-04-09T03:45:16.475Z,83.35
2023-04-09T03:47:46.994Z,83.39
2023-04-09T03:50:15.211Z,83.34
2023-04-09T03:52:52.487Z,83.42
2023-04-09T03:55:21.246Z,83.43
2023-04-09T03:57:49.362Z,83.50
2023-04-09T04:00:19.172Z,84.00
2023-04-09T04:03:07.014Z,84.07
2023-04-09T04:05:50.055Z,84.31
2023-04-09T04:08:18.365Z,84.29
2023-04-09T04:10:46.943Z,84.23
2023-04-09T04:13:16.220Z,84.21
2023-04-09T04:15:50.062Z,84.32
2023-04-09T04:18:21.605Z,84.34
2023-04-09T04:20:52.128Z,84.55
2023-04-09T04:23:20.430Z,84.21
2023-04-09T04:26:11.250Z,84.00
2023-04-09T04:28:40.955Z,84.39
2023-04-09T04:31:11.821Z,84.43
2023-04-09T04:33:42.812Z,84.59
2023-04-09T04:36:14.871Z,84.96
2023-04-09T04:38:46.333Z,84.91
2023-04-09T04:41:21.980Z,84.77
2023-04-09T04:43:57.531Z,84.72
2023-04-09T04:46:25.714Z,84.78
2023-04-09T04:48:54.117Z,84.60
2023-04-09T04:51:22.947Z,84.56
2023-04-09T04:54:01.589Z,84.81
2023-04-09T04:56:30.095Z,84.76
2023-04-09T04:59:09.175Z,84.62
2023-04-09T05:01:47.778Z,84.38
2023-04-09T05:04:16.480Z,84.54
2023-04-09T05:06:44.461Z,84.41
2023-04-09T05:09:14.979Z,84.35
2023-04-09T05:11:49.720Z,84.58
2023-04-09T05:14:21.768Z,84.44
2023-04-09T05:16:50.065Z,84.60
2023-04-09T05:19:19.799Z,84.57
2023-04-09T05:21:48.236Z,84.64
2023-04-09T05:24:21.124Z,84.65
2023-04-09T05:26:49.223Z,84.43
2023-04-09T05:29:17.984Z,84.31
2023-04-09T05:31:46.415Z,84.22
2023-04-09T05:34:47.518Z,84.25
2023-04-09T05:37:16.496Z,84.24
2023-04-09T05:39:47.719Z,84.32
2023-04-09T05:42:16.428Z,84.14
2023-04-09T05:45:12.677Z,84.03
2023-04-09T05:47:47.521Z,84.08
2023-04-09T05:50:21.044Z,83.80
2023-04-09T05:52:50.599Z,83.78
2023-04-09T05:55:18.883Z,83.51
2023-04-09T05:57:53.498Z,83.26
2023-04-09T06:00:22.192Z,83.13
2023-04-09T06:02:51.053Z,82.79
2023-04-09T06:05:19.123Z,82.61
2023-04-09T06:07:48.760Z,82.42
2023-04-09T06:10:16.927Z,81.90
2023-04-09T06:12:45.558Z,81.81
2023-04-09T06:15:13.578Z,81.52
2023-04-09T06:17:41.605Z,81.15
2023-04-09T06:20:10.581Z,80.73
2023-04-09T06:22:38.512Z,80.65
2023-04-09T06:25:07.413Z,80.25
2023-04-09T06:27:35.809Z,80.25
2023-04-09T06:30:04.153Z,80.09
2023-04-09T06:32:33.766Z,80.01
2023-04-09T06:35:10.818Z,79.67
2023-04-09T06:37:39.431Z,79.47
2023-04-09T06:40:08.538Z,79.23
2023-04-09T06:42:36.794Z,79.38
2023-04-09T06:45:16.487Z,79.00
2023-04-09T06:47:45.672Z,77.62
2023-04-09T06:50:14.015Z,76.48
2023-04-09T06:52:42.230Z,76.14
2023-04-09T06:55:10.892Z,76.46
2023-04-09T06:57:39.468Z,76.61
2023-04-09T07:00:08.586Z,76.01
2023-04-09T07:02:37.901Z,75.51
2023-04-09T07:05:06.768Z,75.33
2023-04-09T07:07:34.762Z,75.08
2023-04-09T07:10:03.026Z,74.76
2023-04-09T07:12:32.950Z,74.45
2023-04-09T07:15:03.043Z,73.60
2023-04-09T07:17:31.827Z,73.14
2023-04-09T07:20:00.275Z,72.62
2023-04-09T07:22:29.482Z,71.35
2023-04-09T07:24:57.762Z,70.22
2023-04-09T07:27:27.997Z,70.61
2023-04-09T07:29:57.816Z,70.15
2023-04-09T07:32:28.555Z,69.97
2023-04-09T07:34:57.684Z,68.94
2023-04-09T07:37:27.327Z,67.94
2023-04-09T07:39:55.742Z,68.51
2023-04-09T07:42:24.089Z,68.84
2023-04-09T07:44:52.075Z,68.65
2023-04-09T07:47:20.077Z,68.90
2023-04-09T07:49:48.196Z,68.87
2023-04-09T07:52:16.474Z,68.26
2023-04-09T07:54:44.453Z,68.24
2023-04-09T07:57:12.433Z,67.86
2023-04-09T07:59:41.142Z,67.75
2023-04-09T08:02:09.454Z,67.23
2023-04-09T08:04:38.504Z,66.71
2023-04-09T08:07:06.676Z,66.51
2023-04-09T08:09:34.617Z,66.05
2023-04-09T08:12:02.853Z,65.77
2023-04-09T08:14:30.878Z,65.39
2023-04-09T08:17:00.363Z,64.94
2023-04-09T08:19:28.548Z,64.68
2023-04-09T08:21:56.938Z,64.44
2023-04-09T08:24:25.085Z,63.85
2023-04-09T08:26:53.274Z,63.37
2023-04-09T08:29:21.744Z,63.11
2023-04-09T08:31:49.967Z,62.88
2023-04-09T08:34:21.305Z,63.17
2023-04-09T08:36:50.337Z,63.29
2023-04-09T08:39:21.707Z,62.92
2023-04-09T08:41:52.044Z,62.64
2023-04-09T08:44:21.992Z,62.38
2023-04-09T08:46:51.348Z,62.50
2023-04-09T08:49:19.829Z,62.62
2023-04-09T08:51:51.072Z,62.67
2023-04-09T08:54:22.012Z,62.00
2023-04-09T08:56:50.001Z,62.14
2023-04-09T08:59:21.206Z,61.47
2023-04-09T09:01:54.586Z,61.67
2023-04-09T09:04:22.888Z,61.69
2023-04-09T09:06:51.370Z,61.64
2023-04-09T09:09:19.762Z,61.70
2023-04-09T09:11:51.183Z,61.41
2023-04-09T09:14:20.295Z,60.49
2023-04-09T09:16:58.015Z,60.17
2023-04-09T09:19:26.603Z,59.05
2023-04-09T09:22:06.730Z,58.58
2023-04-09T09:24:48.358Z,58.68
2023-04-09T09:27:40.816Z,58.13
2023-04-09T09:30:11.041Z,58.31
2023-04-09T09:32:39.460Z,57.97
2023-04-09T09:35:08.293Z,58.22
2023-04-09T09:37:36.569Z,58.22
2023-04-09T09:40:05.940Z,58.47
2023-04-09T09:42:34.215Z,58.52
2023-04-09T09:45:17.648Z,57.30
2023-04-09T09:47:46.795Z,57.26
2023-04-09T09:50:15.026Z,57.65
2023-04-09T09:52:46.668Z,57.86
2023-04-09T09:55:17.504Z,57.69
2023-04-09T09:57:48.610Z,58.00
2023-04-09T10:00:18.618Z,57.87
2023-04-09T10:02:57.679Z,58.07
2023-04-09T10:05:27.884Z,57.66
2023-04-09T10:07:58.261Z,57.30
2023-04-09T10:10:27.886Z,56.92
2023-04-09T10:12:56.737Z,56.60
2023-04-09T10:15:26.408Z,56.51
2023-04-09T10:17:56.260Z,56.46
2023-04-09T10:20:42.141Z,56.40
2023-04-09T10:23:19.838Z,55.98
2023-04-09T10:25:47.865Z,55.76
2023-04-09T10:28:18.861Z,55.00
2023-04-09T10:30:46.986Z,55.34
2023-04-09T10:33:17.617Z,55.29
2023-04-09T10:35:49.035Z,54.93
2023-04-09T10:38:16.995Z,54.58
2023-04-09T10:40:53.498Z,54.18
2023-04-09T10:43:22.437Z,54.15
2023-04-09T10:45:54.558Z,54.22
2023-04-09T10:48:26.262Z,54.05
2023-04-09T10:50:55.558Z,53.33
2023-04-09T10:53:25.718Z,53.25
2023-04-09T10:55:54.564Z,53.63
2023-04-09T10:58:22.561Z,53.31
2023-04-09T11:00:51.837Z,53.05
2023-04-09T11:03:29.040Z,52.30
2023-04-09T11:06:11.814Z,51.53
2023-04-09T11:08:39.906Z,51.72
2023-04-09T11:11:08.091Z,51.89
2023-04-09T11:13:36.376Z,51.68
2023-04-09T11:16:07.360Z,51.38
2023-04-09T11:18:37.317Z,51.76
2023-04-09T11:21:06.002Z,51.04
2023-04-09T11:23:34.479Z,50.31
2023-04-09T11:26:03.003Z,50.57
2023-04-09T11:28:31.279Z,51.10
2023-04-09T11:30:59.311Z,51.20
2023-04-09T11:33:34.533Z,51.22
2023-04-09T11:36:05.901Z,51.44
2023-04-09T11:38:34.007Z,51.65
2023-04-09T11:41:02.363Z,51.68
2023-04-09T11:43:30.406Z,51.51
2023-04-09T11:45:59.634Z,51.15
2023-04-09T11:48:28.187Z,51.11
2023-04-09T11:50:57.492Z,50.92
2023-04-09T11:53:31.201Z,50.54
2023-04-09T11:55:59.773Z,51.03
2023-04-09T11:58:28.261Z,51.50
2023-04-09T12:00:58.976Z,51.08
2023-04-09T12:03:33.460Z,51.30
2023-04-09T12:06:03.792Z,50.74
2023-04-09T12:08:35.154Z,50.33
2023-04-09T12:11:10.781Z,49.97
2023-04-09T12:13:44.767Z,49.57
2023-04-09T12:16:13.928Z,49.51
2023-04-09T12:18:42.053Z,49.19
2023-04-09T12:21:10.505Z,48.40
2023-04-09T12:23:38.775Z,48.43
2023-04-09T12:26:06.850Z,48.67
2023-04-09T12:28:36.052Z,49.07
2023-04-09T12:31:04.114Z,48.47
2023-04-09T12:33:32.598Z,48.62
2023-04-09T12:36:00.790Z,47.82
2023-04-09T12:38:29.049Z,48.06
2023-04-09T12:40:57.259Z,48.29
2023-04-09T12:43:25.593Z,47.82
2023-04-09T12:45:53.601Z,47.76
2023-04-09T12:48:21.650Z,47.26
2023-04-09T12:50:49.717Z,46.69
2023-04-09T12:53:17.887Z,46.61
2023-04-09T12:55:46.043Z,46.79
2023-04-09T12:58:13.954Z,46.95
2023-04-09T13:00:42.012Z,47.25
2023-04-09T13:03:10.282Z,47.24
2023-04-09T13:05:38.455Z,47.28
2023-04-09T13:08:07.051Z,47.34
2023-04-09T13:10:35.919Z,47.33
2023-04-09T13:13:03.986Z,47.80
2023-04-09T13:15:32.471Z,47.94
2023-04-09T13:18:00.549Z,47.63
2023-04-09T13:20:28.498Z,47.60
2023-04-09T13:22:57.086Z,48.04
2023-04-09T13:25:25.161Z,47.87
2023-04-09T13:27:53.229Z,47.91
2023-04-09T13:30:24.376Z,47.39
2023-04-09T13:32:52.430Z,47.28
2023-04-09T13:35:20.627Z,47.11
2023-04-09T13:37:48.785Z,46.33
2023-04-09T13:40:17.286Z,46.50
2023-04-09T13:42:45.548Z,46.78
2023-04-09T13:45:13.753Z,46.44
2023-04-09T13:47:43.222Z,46.51
2023-04-09T13:50:13.260Z,46.42
2023-04-09T13:52:41.309Z,46.76
2023-04-09T13:55:09.792Z,46.61
2023-04-09T13:57:37.712Z,46.13
2023-04-09T14:00:09.277Z,45.89
2023-04-09T14:02:37.336Z,46.08
2023-04-09T14:05:06.165Z,46.29
2023-04-09T14:07:34.211Z,46.12
2023-04-09T14:10:02.930Z,45.90
2023-04-09T14:12:31.304Z,45.35
2023-04-09T14:14:59.289Z,45.26
2023-04-09T14:17:27.404Z,45.39
2023-04-09T14:19:55.519Z,45.32
2023-04-09T14:22:23.499Z,45.23
2023-04-09T14:24:51.670Z,45.54
2023-04-09T14:27:20.088Z,45.35
2023-04-09T14:29:48.922Z,44.78
2023-04-09T14:32:17.537Z,44.91
2023-04-09T14:34:46.861Z,45.36
2023-04-09T14:37:14.889Z,45.44
2023-04-09T14:39:42.962Z,45.70
2023-04-09T14:42:11.124Z,45.96
2023-04-09T14:44:39.195Z,45.94
2023-04-09T14:47:07.365Z,45.99
2023-04-09T14:49:35.445Z,46.21
2023-04-09T14:52:03.888Z,46.22
2023-04-09T14:54:33.369Z,46.30
2023-04-09T14:57:03.685Z,46.63
2023-04-09T14:59:31.741Z,46.76
2023-04-09T15:01:59.925Z,47.10
2023-04-09T15:04:28.369Z,47.18
2023-04-09T15:06:56.445Z,47.42
2023-04-09T15:09:24.770Z,47.32
2023-04-09T15:11:54.348Z,47.34
2023-04-09T15:14:23.843Z,47.39
2023-04-09T15:16:55.980Z,47.37
2023-04-09T15:19:24.181Z,47.44
2023-04-09T15:21:52.154Z,47.22
2023-04-09T15:24:20.726Z,47.50
2023-04-09T15:26:49.877Z,47.86
2023-04-09T15:29:19.056Z,48.21
2023-04-09T15:31:47.334Z,48.44
2023-04-09T15:34:16.183Z,48.72
2023-04-09T15:36:46.122Z,49.14
2023-04-09T15:39:14.232Z,49.32
2023-04-09T15:41:42.156Z,49.87
2023-04-09T15:44:10.506Z,50.27
2023-04-09T15:46:38.803Z,50.78
2023-04-09T15:49:07.066Z,51.16
2023-04-09T15:51:35.038Z,51.67
2023-04-09T15:54:03.006Z,52.04
2023-04-09T15:56:31.185Z,52.40
2023-04-09T15:59:02.222Z,52.76
2023-04-09T16:01:30.861Z,52.99
2023-04-09T16:03:59.134Z,53.30
2023-04-09T16:06:27.664Z,53.43
2023-04-09T16:08:56.835Z,53.49
2023-04-09T16:11:24.890Z,53.76
2023-04-09T16:13:54.517Z,53.78
2023-04-09T16:16:24.124Z,53.81
2023-04-09T16:18:52.985Z,53.81
2023-04-09T16:21:21.751Z,53.90
2023-04-09T16:23:49.808Z,54.02
2023-04-09T16:26:17.746Z,54.16
2023-04-09T16:28:45.885Z,54.29
2023-04-09T16:31:14.220Z,54.24
2023-04-09T16:33:42.135Z,54.44
2023-04-09T16:36:10.420Z,54.62
2023-04-09T16:38:38.544Z,54.86
2023-04-09T16:41:06.612Z,55.03
2023-04-09T16:43:34.679Z,55.07
2023-04-09T16:46:02.867Z,55.21
2023-04-09T16:48:31.372Z,55.54
2023-04-09T16:50:59.292Z,55.58
2023-04-09T16:53:27.945Z,55.77
2023-04-09T16:55:55.914Z,55.90
2023-04-09T16:58:24.050Z,55.99
2023-04-09T17:00:52.353Z,56.08
2023-04-09T17:03:20.833Z,56.21
2023-04-09T17:05:49.515Z,56.42
2023-04-09T17:08:21.847Z,56.54
2023-04-09T17:11:02.369Z,56.63
2023-04-09T17:13:34.314Z,56.79
2023-04-09T17:16:02.970Z,57.17
2023-04-09T17:18:31.112Z,57.07
2023-04-09T17:20:59.880Z,57.14
2023-04-09T17:23:28.001Z,57.21
2023-04-09T17:25:57.147Z,57.53
2023-04-09T17:28:25.822Z,57.67
2023-04-09T17:30:53.919Z,57.82
2023-04-09T17:33:23.368Z,57.90
2023-04-09T17:35:51.539Z,58.12
2023-04-09T17:38:21.753Z,58.32
2023-04-09T17:40:49.940Z,58.45
2023-04-09T17:43:18.608Z,58.63
2023-04-09T17:45:49.354Z,58.95
2023-04-09T17:48:18.353Z,59.19
2023-04-09T17:50:47.364Z,59.27
2023-04-09T17:53:15.359Z,59.48
2023-04-09T17:55:48.874Z,59.51
2023-04-09T17:58:17.359Z,59.55
2023-04-09T18:00:45.528Z,59.62
2023-04-09T18:03:13.727Z,59.76
2023-04-09T18:05:42.754Z,59.70
2023-04-09T18:08:10.867Z,59.90
2023-04-09T18:10:38.904Z,60.13
2023-04-09T18:13:07.057Z,60.20
2023-04-09T18:15:35.107Z,60.19
2023-04-09T18:18:03.181Z,60.51
2023-04-09T18:20:31.123Z,60.85
2023-04-09T18:22:59.116Z,60.89
2023-04-09T18:25:28.796Z,60.80
2023-04-09T18:27:57.383Z,61.17
2023-04-09T18:30:26.523Z,61.40
2023-04-09T18:32:54.590Z,61.53
2023-04-09T18:35:22.945Z,61.49
2023-04-09T18:37:51.369Z,61.57
2023-04-09T18:40:20.405Z,61.68
2023-04-09T18:42:52.621Z,61.52
2023-04-09T18:45:20.758Z,61.76
2023-04-09T18:47:48.852Z,61.84
2023-04-09T18:50:18.833Z,62.19
2023-04-09T18:52:46.897Z,62.33
2023-04-09T18:55:15.904Z,62.59
2023-04-09T18:57:44.504Z,63.03
2023-04-09T19:00:13.167Z,62.88
2023-04-09T19:02:41.574Z,63.06
2023-04-09T19:05:10.578Z,63.30
2023-04-09T19:07:38.931Z,63.20
2023-04-09T19:10:07.647Z,63.15
2023-04-09T19:12:35.711Z,63.59
2023-04-09T19:15:05.107Z,63.86
2023-04-09T19:17:34.238Z,63.87
2023-04-09T19:20:03.368Z,63.92
2023-04-09T19:22:31.543Z,63.96
2023-04-09T19:24:59.549Z,63.96
2023-04-09T19:27:27.649Z,64.19
2023-04-09T19:29:59.069Z,64.52
2023-04-09T19:32:27.741Z,64.59
2023-04-09T19:34:56.051Z,64.89
2023-04-09T19:37:28.336Z,65.02
2023-04-09T19:39:57.978Z,65.08
2023-04-09T19:42:28.870Z,65.11
2023-04-09T19:44:56.978Z,65.35
2023-04-09T19:47:25.093Z,65.36
2023-04-09T19:49:56.395Z,65.67
2023-04-09T19:52:24.431Z,65.79
2023-04-09T19:54:57.083Z,65.75
2023-04-09T19:57:26.662Z,65.90
2023-04-09T19:59:55.624Z,66.00
2023-04-09T20:02:24.188Z,66.46
2023-04-09T20:04:52.606Z,66.43
2023-04-09T20:07:20.890Z,66.71
2023-04-09T20:09:49.793Z,66.82
2023-04-09T20:12:17.840Z,67.06
2023-04-09T20:14:49.002Z,67.35
2023-04-09T20:17:19.970Z,67.53
2023-04-09T20:19:47.907Z,67.65
2023-04-09T20:22:17.088Z,67.89
2023-04-09T20:24:45.018Z,67.98
2023-04-09T20:27:13.024Z,68.04
2023-04-09T20:29:42.221Z,68.17
2023-04-09T20:32:10.435Z,68.20
2023-04-09T20:34:38.465Z,68.34
2023-04-09T20:37:06.845Z,68.66
2023-04-09T20:39:34.818Z,68.67
2023-04-09T20:42:02.784Z,68.61
2023-04-09T20:44:33.806Z,68.64
2023-04-09T20:47:02.956Z,68.84
2023-04-09T20:49:30.995Z,68.89
2023-04-09T20:51:59.710Z,68.92
2023-04-09T20:54:29.633Z,69.13
2023-04-09T20:56:57.965Z,69.44
2023-04-09T20:59:26.572Z,69.43
2023-04-09T21:01:57.360Z,69.47
2023-04-09T21:04:26.336Z,69.79
2023-04-09T21:06:54.753Z,69.68
2023-04-09T21:09:22.828Z,69.54
2023-04-09T21:11:51.202Z,69.81
2023-04-09T21:14:19.499Z,69.92
2023-04-09T21:16:47.784Z,70.08
2023-04-09T21:19:16.239Z,70.04
2023-04-09T21:21:44.182Z,70.25
2023-04-09T21:24:12.179Z,70.39
2023-04-09T21:26:51.176Z,70.50
2023-04-09T21:29:23.895Z,70.82
2023-04-09T21:31:51.862Z,70.78
2023-04-09T21:34:20.035Z,71.12
2023-04-09T21:36:48.734Z,71.25
2023-04-09T21:39:16.932Z,71.48
2023-04-09T21:41:44.976Z,71.66
2023-04-09T21:44:13.673Z,71.67
2023-04-09T21:46:41.951Z,71.73
2023-04-09T21:49:10.108Z,72.21
2023-04-09T21:51:40.128Z,72.04
2023-04-09T21:54:09.869Z,72.37
2023-04-09T21:56:39.552Z,72.34
2023-04-09T21:59:07.845Z,72.64
2023-04-09T22:01:36.091Z,72.96
2023-04-09T22:04:04.568Z,73.51
2023-04-09T22:06:33.375Z,73.46
2023-04-09T22:09:02.169Z,73.57
2023-04-09T22:11:30.746Z,73.74
2023-04-09T22:13:59.106Z,74.14
2023-04-09T22:16:27.420Z,74.12
2023-04-09T22:18:56.638Z,74.17
2023-04-09T22:21:25.485Z,74.36
2023-04-09T22:23:53.646Z,74.60
2023-04-09T22:26:22.229Z,74.85
2023-04-09T22:28:50.521Z,75.09
2023-04-09T22:31:18.552Z,75.32
2023-04-09T22:33:46.644Z,75.48
2023-04-09T22:36:14.938Z,75.70
2023-04-09T22:38:42.990Z,76.22
2023-04-09T22:41:11.064Z,76.26
2023-04-09T22:43:39.177Z,76.15
2023-04-09T22:46:07.411Z,76.35
2023-04-09T22:48:40.825Z,76.60
2023-04-09T22:51:13.895Z,76.80
2023-04-09T22:53:42.088Z,76.77
2023-04-09T22:56:10.215Z,76.41
2023-04-09T22:58:39.036Z,76.58
2023-04-09T23:01:07.819Z,76.54
2023-04-09T23:03:36.121Z,76.63
2023-04-09T23:06:04.383Z,76.86
2023-04-09T23:08:32.434Z,76.82
2023-04-09T23:11:00.434Z,77.03
2023-04-09T23:13:28.378Z,77.23
2023-04-09T23:15:56.389Z,77.35
2023-04-09T23:18:24.415Z,77.68
2023-04-09T23:20:52.483Z,77.59
2023-04-09T23:23:20.503Z,77.63
2023-04-09T23:25:48.436Z,77.53
2023-04-09T23:28:16.721Z,77.54
2023-04-09T23:30:44.668Z,78.00
2023-04-09T23:33:12.758Z,78.47
2023-04-09T23:35:41.213Z,78.40
2023-04-09T23:38:09.609Z,78.70
2023-04-09T23:40:37.561Z,78.84
2023-04-09T23:43:05.539Z,79.13
2023-04-09T23:45:33.528Z,79.24
2023-04-09T23:48:02.547Z,79.11
2023-04-09T23:50:31.026Z,79.04
2023-04-09T23:53:01.204Z,78.94
2023-04-09T23:55:29.368Z,78.82
2023-04-09T23:57:57.444Z,79.06
